New Helena, Nebraska
Current Conditions -  °F | °C
As of 7:53 AM on Friday 24 Oct 2014 (Local Time) from KBBW Reporting Station
Clear Clear  
Wind Chill: 54°   Ceiling: Unl
Heat Index: 54°   Visibility: 10mi
Dew Point: 44°   Wind: 3mph
Humidity: 69%   Direction: 220°SW
Pressure: 29.93"   Gusts: NA
Location:  41.6612°N, 99.7844°W
Report Text: KBBW 241253Z AUTO 22003KT 10SM CLR 12/07 A2993 RMK AO2 SLP128 T01220067
Loading
Personal Weather Stations






























Interactive Weather Map
Tropical Storm Tracking
New forecast layout! Learn more

10-Day Weather Forecast

Advertisements
Track Severe Weather on mobile